sensor_id;sensor_type;location;lat;lon;timestamp;pressure;altitude;pressure_sealevel;temperature;humidity
73952;BME280;62304;47.662;18.324;2023-05-16T00:01:17;99850.31;;;13.66;89.14
73952;BME280;62304;47.662;18.324;2023-05-16T00:04:21;99842.00;;;13.45;89.92
73952;BME280;62304;47.662;18.324;2023-05-16T00:07:25;99837.62;;;13.55;89.77
73952;BME280;62304;47.662;18.324;2023-05-16T00:10:28;99829.66;;;13.57;89.60
73952;BME280;62304;47.662;18.324;2023-05-16T00:13:31;99817.03;;;13.03;91.79
73952;BME280;62304;47.662;18.324;2023-05-16T00:16:34;99822.19;;;13.12;91.95
73952;BME280;62304;47.662;18.324;2023-05-16T00:19:39;99822.97;;;13.19;91.67
73952;BME280;62304;47.662;18.324;2023-05-16T00:22:44;99819.41;;;13.12;92.35
73952;BME280;62304;47.662;18.324;2023-05-16T00:25:48;99826.56;;;13.30;91.29
73952;BME280;62304;47.662;18.324;2023-05-16T00:28:51;99829.34;;;13.27;91.19
73952;BME280;62304;47.662;18.324;2023-05-16T00:31:54;99835.72;;;13.17;91.56
73952;BME280;62304;47.662;18.324;2023-05-16T00:34:57;99844.06;;;13.06;92.51
73952;BME280;62304;47.662;18.324;2023-05-16T00:38:00;99849.25;;;13.08;91.69
73952;BME280;62304;47.662;18.324;2023-05-16T00:41:03;99855.63;;;13.05;92.01
73952;BME280;62304;47.662;18.324;2023-05-16T00:44:06;99860.78;;;12.99;92.49
73952;BME280;62304;47.662;18.324;2023-05-16T00:47:09;99861.19;;;13.12;92.04
73952;BME280;62304;47.662;18.324;2023-05-16T00:50:12;99861.97;;;13.05;92.57
73952;BME280;62304;47.662;18.324;2023-05-16T00:53:15;99865.97;;;12.97;92.34
73952;BME280;62304;47.662;18.324;2023-05-16T00:56:18;99865.94;;;13.08;92.51
73952;BME280;62304;47.662;18.324;2023-05-16T00:59:23;99870.31;;;12.98;92.47
73952;BME280;62304;47.662;18.324;2023-05-16T01:06:01;99830.94;;;12.96;91.52
73952;BME280;62304;47.662;18.324;2023-05-16T01:09:05;99822.97;;;13.09;92.01
73952;BME280;62304;47.662;18.324;2023-05-16T01:15:27;99808.66;;;12.93;92.74
73952;BME280;62304;47.662;18.324;2023-05-16T01:18:41;99803.87;;;12.79;93.20
73952;BME280;62304;47.662;18.324;2023-05-16T01:22:01;99807.06;;;12.92;93.13
73952;BME280;62304;47.662;18.324;2023-05-16T01:28:33;99813.47;;;12.96;93.40
73952;BME280;62304;47.662;18.324;2023-05-16T01:31:37;99811.88;;;13.02;93.36
73952;BME280;62304;47.662;18.324;2023-05-16T01:34:40;99811.06;;;13.08;93.15
73952;BME280;62304;47.662;18.324;2023-05-16T01:38:17;99810.22;;;13.18;92.32
73952;BME280;62304;47.662;18.324;2023-05-16T01:45:21;99790.34;;;12.92;93.88
73952;BME280;62304;47.662;18.324;2023-05-16T01:48:31;99799.09;;;13.15;92.91
73952;BME280;62304;47.662;18.324;2023-05-16T01:51:38;99797.53;;;13.07;92.89
73952;BME280;62304;47.662;18.324;2023-05-16T01:54:44;99814.25;;;12.96;93.05
73952;BME280;62304;47.662;18.324;2023-05-16T01:57:51;99813.06;;;12.97;93.37
73952;BME280;62304;47.662;18.324;2023-05-16T02:01:03;99814.62;;;13.05;93.37
73952;BME280;62304;47.662;18.324;2023-05-16T02:04:06;99811.84;;;13.05;93.21
73952;BME280;62304;47.662;18.324;2023-05-16T02:07:09;99812.25;;;13.04;93.49
73952;BME280;62304;47.662;18.324;2023-05-16T02:10:12;99818.19;;;12.88;94.54
73952;BME280;62304;47.662;18.324;2023-05-16T02:13:16;99800.72;;;12.98;94.21
73952;BME280;62304;47.662;18.324;2023-05-16T02:16:19;99800.72;;;13.19;93.27
73952;BME280;62304;47.662;18.324;2023-05-16T02:19:22;99805.88;;;13.07;92.92
73952;BME280;62304;47.662;18.324;2023-05-16T02:22:25;99792.34;;;12.95;93.94
73952;BME280;62304;47.662;18.324;2023-05-16T02:25:28;99801.50;;;12.88;94.46
73952;BME280;62304;47.662;18.324;2023-05-16T02:28:31;99805.50;;;12.80;94.65
73952;BME280;62304;47.662;18.324;2023-05-16T02:31:34;99787.97;;;12.90;94.70
73952;BME280;62304;47.662;18.324;2023-05-16T02:34:37;99784.81;;;12.60;95.63
73952;BME280;62304;47.662;18.324;2023-05-16T02:37:40;99786.00;;;12.80;94.76
73952;BME280;62304;47.662;18.324;2023-05-16T02:40:43;99793.53;;;12.83;94.96
73952;BME280;62304;47.662;18.324;2023-05-16T02:43:46;99785.59;;;12.89;94.67
73952;BME280;62304;47.662;18.324;2023-05-16T02:46:49;99781.63;;;12.97;94.25
73952;BME280;62304;47.662;18.324;2023-05-16T02:49:52;99777.25;;;13.06;93.76
73952;BME280;62304;47.662;18.324;2023-05-16T02:52:55;99784.81;;;13.09;93.68
73952;BME280;62304;47.662;18.324;2023-05-16T02:56:01;99780.81;;;13.10;94.24
73952;BME280;62304;47.662;18.324;2023-05-16T02:59:08;99783.62;;;13.07;94.65
73952;BME280;62304;47.662;18.324;2023-05-16T03:02:11;99780.44;;;13.01;94.82
73952;BME280;62304;47.662;18.324;2023-05-16T03:05:14;99786.41;;;13.03;94.71
73952;BME280;62304;47.662;18.324;2023-05-16T03:08:17;99767.31;;;13.16;94.21
73952;BME280;62304;47.662;18.324;2023-05-16T03:11:20;99756.97;;;12.85;94.82
73952;BME280;62304;47.662;18.324;2023-05-16T03:14:27;99749.03;;;12.80;95.42
73952;BME280;62304;47.662;18.324;2023-05-16T03:17:30;99737.88;;;12.90;95.13
73952;BME280;62304;47.662;18.324;2023-05-16T03:20:33;99741.06;;;12.99;94.51
73952;BME280;62304;47.662;18.324;2023-05-16T03:23:36;99746.62;;;12.85;94.60
73952;BME280;62304;47.662;18.324;2023-05-16T03:26:39;99748.66;;;12.74;95.66
73952;BME280;62304;47.662;18.324;2023-05-16T03:29:42;99734.72;;;12.71;95.78
73952;BME280;62304;47.662;18.324;2023-05-16T03:32:45;99754.59;;;12.62;96.25
73952;BME280;62304;47.662;18.324;2023-05-16T03:35:48;99757.75;;;12.78;95.91
73952;BME280;62304;47.662;18.324;2023-05-16T03:38:51;99753.41;;;12.70;95.99
73952;BME280;62304;47.662;18.324;2023-05-16T03:41:54;99751.03;;;12.51;96.62
73952;BME280;62304;47.662;18.324;2023-05-16T03:44:59;99751.81;;;12.34;98.16
73952;BME280;62304;47.662;18.324;2023-05-16T03:48:01;99765.75;;;12.48;97.78
73952;BME280;62304;47.662;18.324;2023-05-16T03:51:05;99768.09;;;12.43;98.70
73952;BME280;62304;47.662;18.324;2023-05-16T03:54:07;99762.53;;;12.39;99.15
73952;BME280;62304;47.662;18.324;2023-05-16T03:57:10;99768.53;;;12.45;98.91
73952;BME280;62304;47.662;18.324;2023-05-16T04:00:13;99765.75;;;12.45;99.22
73952;BME280;62304;47.662;18.324;2023-05-16T04:03:17;99758.59;;;12.51;99.08
73952;BME280;62304;47.662;18.324;2023-05-16T04:06:19;99772.06;;;12.49;98.69
73952;BME280;62304;47.662;18.324;2023-05-16T04:09:23;99771.28;;;12.38;99.04
73952;BME280;62304;47.662;18.324;2023-05-16T04:12:26;99767.31;;;12.42;99.18
73952;BME280;62304;47.662;18.324;2023-05-16T04:15:29;99781.63;;;12.51;99.60
73952;BME280;62304;47.662;18.324;2023-05-16T04:18:32;99780.44;;;12.56;99.60
73952;BME280;62304;47.662;18.324;2023-05-16T04:21:35;99783.62;;;12.61;99.48
73952;BME280;62304;47.662;18.324;2023-05-16T04:24:38;99785.19;;;12.62;100.00
73952;BME280;62304;47.662;18.324;2023-05-16T04:27:41;99784.81;;;12.64;100.00
73952;BME280;62304;47.662;18.324;2023-05-16T04:30:44;99782.03;;;12.64;100.00
73952;BME280;62304;47.662;18.324;2023-05-16T04:33:48;99791.97;;;12.65;100.00
73952;BME280;62304;47.662;18.324;2023-05-16T04:36:51;99793.16;;;12.71;100.00
73952;BME280;62304;47.662;18.324;2023-05-16T04:39:54;99797.94;;;12.67;99.76
73952;BME280;62304;47.662;18.324;2023-05-16T04:42:56;99808.66;;;12.68;100.00
73952;BME280;62304;47.662;18.324;2023-05-16T04:45:59;99803.87;;;12.55;100.00
73952;BME280;62304;47.662;18.324;2023-05-16T04:49:02;99790.38;;;12.60;100.00
73952;BME280;62304;47.662;18.324;2023-05-16T04:52:06;99802.31;;;12.61;100.00
73952;BME280;62304;47.662;18.324;2023-05-16T04:55:09;99804.28;;;12.67;99.96
73952;BME280;62304;47.662;18.324;2023-05-16T04:58:13;99808.25;;;12.70;99.84
73952;BME280;62304;47.662;18.324;2023-05-16T05:01:15;99806.66;;;12.72;99.75
73952;BME280;62304;47.662;18.324;2023-05-16T05:04:18;99803.50;;;12.70;100.00
73952;BME280;62304;47.662;18.324;2023-05-16T05:07:22;99803.50;;;12.67;100.00
73952;BME280;62304;47.662;18.324;2023-05-16T05:10:25;99810.22;;;12.66;100.00
73952;BME280;62304;47.662;18.324;2023-05-16T05:13:29;99794.34;;;12.73;100.00
73952;BME280;62304;47.662;18.324;2023-05-16T05:16:32;99801.50;;;12.81;100.00
73952;BME280;62304;47.662;18.324;2023-05-16T05:19:36;99802.69;;;12.84;99.87
73952;BME280;62304;47.662;18.324;2023-05-16T05:22:39;99810.25;;;12.83;100.00
73952;BME280;62304;47.662;18.324;2023-05-16T05:25:42;99817.00;;;12.89;99.87
73952;BME280;62304;47.662;18.324;2023-05-16T05:28:45;99817.41;;;12.84;100.00
73952;BME280;62304;47.662;18.324;2023-05-16T05:31:58;99824.97;;;12.80;100.00
73952;BME280;62304;47.662;18.324;2023-05-16T05:35:02;99822.56;;;12.86;100.00
73952;BME280;62304;47.662;18.324;2023-05-16T05:38:05;99825.78;;;12.98;100.00
73952;BME280;62304;47.662;18.324;2023-05-16T05:41:08;99830.12;;;13.06;100.00
73952;BME280;62304;47.662;18.324;2023-05-16T05:44:11;99821.41;;;13.08;100.00
73952;BME280;62304;47.662;18.324;2023-05-16T05:47:14;99820.59;;;13.14;100.00
73952;BME280;62304;47.662;18.324;2023-05-16T05:50:17;99821.41;;;13.08;99.92
73952;BME280;62304;47.662;18.324;2023-05-16T05:53:20;99809.47;;;13.00;100.00
73952;BME280;62304;47.662;18.324;2023-05-16T05:56:23;99797.53;;;13.07;100.00
73952;BME280;62304;47.662;18.324;2023-05-16T05:59:26;99778.44;;;13.16;100.00
73952;BME280;62304;47.662;18.324;2023-05-16T06:02:29;99787.97;;;13.15;100.00
73952;BME280;62304;47.662;18.324;2023-05-16T06:05:32;99783.19;;;13.19;100.00
73952;BME280;62304;47.662;18.324;2023-05-16T06:08:35;99777.59;;;13.26;100.00
73952;BME280;62304;47.662;18.324;2023-05-16T06:11:38;99771.25;;;13.18;100.00
73952;BME280;62304;47.662;18.324;2023-05-16T06:14:41;99769.66;;;13.24;100.00
73952;BME280;62304;47.662;18.324;2023-05-16T06:17:44;99761.66;;;13.33;100.00
73952;BME280;62304;47.662;18.324;2023-05-16T06:20:47;99754.47;;;13.39;100.00
73952;BME280;62304;47.662;18.324;2023-05-16T06:23:50;99761.66;;;13.37;100.00
73952;BME280;62304;47.662;18.324;2023-05-16T06:26:53;99761.66;;;13.37;100.00
73952;BME280;62304;47.662;18.324;2023-05-16T06:29:57;99762.44;;;13.41;100.00
73952;BME280;62304;47.662;18.324;2023-05-16T06:33:00;99760.03;;;13.43;100.00
73952;BME280;62304;47.662;18.324;2023-05-16T06:36:03;99772.37;;;13.45;100.00
73952;BME280;62304;47.662;18.324;2023-05-16T06:39:06;99764.84;;;13.39;100.00
73952;BME280;62304;47.662;18.324;2023-05-16T06:42:09;99767.25;;;13.33;100.00
73952;BME280;62304;47.662;18.324;2023-05-16T06:45:12;99777.56;;;13.40;100.00
73952;BME280;62304;47.662;18.324;2023-05-16T06:48:17;99773.97;;;13.43;100.00
73952;BME280;62304;47.662;18.324;2023-05-16T06:51:20;99776.38;;;13.37;100.00
73952;BME280;62304;47.662;18.324;2023-05-16T06:54:23;99774.78;;;13.43;100.00
73952;BME280;62304;47.662;18.324;2023-05-16T06:57:25;99772.78;;;13.40;100.00
73952;BME280;62304;47.662;18.324;2023-05-16T07:00:28;99769.56;;;13.56;100.00
73952;BME280;62304;47.662;18.324;2023-05-16T07:03:31;99758.38;;;13.66;100.00
73952;BME280;62304;47.662;18.324;2023-05-16T07:06:34;99765.53;;;13.67;100.00
73952;BME280;62304;47.662;18.324;2023-05-16T07:09:38;99763.50;;;13.82;100.00
73952;BME280;62304;47.662;18.324;2023-05-16T07:12:41;99773.00;;;13.84;100.00
73952;BME280;62304;47.662;18.324;2023-05-16T07:15:44;99762.25;;;13.86;100.00
73952;BME280;62304;47.662;18.324;2023-05-16T07:18:48;99758.25;;;13.91;100.00
73952;BME280;62304;47.662;18.324;2023-05-16T07:21:51;99755.06;;;13.89;100.00
73952;BME280;62304;47.662;18.324;2023-05-16T07:24:54;99747.06;;;13.94;100.00
73952;BME280;62304;47.662;18.324;2023-05-16T07:27:58;99744.72;;;13.89;99.51
73952;BME280;62304;47.662;18.324;2023-05-16T07:31:02;99759.88;;;13.85;99.40
73952;BME280;62304;47.662;18.324;2023-05-16T07:34:05;99768.25;;;13.81;99.15
73952;BME280;62304;47.662;18.324;2023-05-16T07:37:11;99770.72;;;13.65;97.52
73952;BME280;62304;47.662;18.324;2023-05-16T07:40:15;99773.47;;;13.72;98.71
73952;BME280;62304;47.662;18.324;2023-05-16T07:43:20;99784.59;;;13.72;98.21
73952;BME280;62304;47.662;18.324;2023-05-16T07:46:22;99783.84;;;13.72;98.59
73952;BME280;62304;47.662;18.324;2023-05-16T07:49:26;99795.75;;;13.72;99.51
73952;BME280;62304;47.662;18.324;2023-05-16T07:52:29;99785.41;;;13.76;99.12
73952;BME280;62304;47.662;18.324;2023-05-16T07:55:32;99779.03;;;13.79;98.91
73952;BME280;62304;47.662;18.324;2023-05-16T07:58:35;99784.59;;;13.83;98.67
73952;BME280;62304;47.662;18.324;2023-05-16T08:01:38;99788.94;;;13.84;98.79
73952;BME280;62304;47.662;18.324;2023-05-16T08:04:41;99778.97;;;13.86;99.89
73952;BME280;62304;47.662;18.324;2023-05-16T08:07:44;99770.56;;;13.93;100.00
73952;BME280;62304;47.662;18.324;2023-05-16T08:10:47;99766.22;;;13.92;99.97
73952;BME280;62304;47.662;18.324;2023-05-16T08:13:50;99763.38;;;13.99;99.30
73952;BME280;62304;47.662;18.324;2023-05-16T08:16:53;99755.41;;;14.01;99.01
73952;BME280;62304;47.662;18.324;2023-05-16T08:19:56;99750.22;;;14.03;98.89
73952;BME280;62304;47.662;18.324;2023-05-16T08:23:01;99741.41;;;14.08;99.13
73952;BME280;62304;47.662;18.324;2023-05-16T08:26:04;99761.00;;;14.01;98.94
73952;BME280;62304;47.662;18.324;2023-05-16T08:29:07;99766.56;;;13.98;98.86
73952;BME280;62304;47.662;18.324;2023-05-16T08:32:10;99779.31;;;14.02;99.18
73952;BME280;62304;47.662;18.324;2023-05-16T08:35:13;99778.56;;;13.84;98.97
73952;BME280;62304;47.662;18.324;2023-05-16T08:38:15;99778.72;;;13.60;99.09
73952;BME280;62304;47.662;18.324;2023-05-16T08:41:19;99768.75;;;13.59;99.30
73952;BME280;62304;47.662;18.324;2023-05-16T08:44:23;99762.00;;;13.60;100.00
73952;BME280;62304;47.662;18.324;2023-05-16T08:47:30;99749.22;;;13.62;100.00
73952;BME280;62304;47.662;18.324;2023-05-16T08:50:34;99758.41;;;13.56;100.00
73952;BME280;62304;47.662;18.324;2023-05-16T08:53:39;99762.41;;;13.55;100.00
73952;BME280;62304;47.662;18.324;2023-05-16T08:56:46;99767.66;;;13.35;99.60
73952;BME280;62304;47.662;18.324;2023-05-16T08:59:52;99785.97;;;13.33;100.00
73952;BME280;62304;47.662;18.324;2023-05-16T09:02:58;99787.91;;;13.39;100.00
73952;BME280;62304;47.662;18.324;2023-05-16T09:06:04;99786.34;;;13.31;100.00
73952;BME280;62304;47.662;18.324;2023-05-16T09:09:09;99781.16;;;13.33;100.00
73952;BME280;62304;47.662;18.324;2023-05-16T09:12:14;99782.38;;;13.32;100.00
73952;BME280;62304;47.662;18.324;2023-05-16T09:15:18;99776.78;;;13.36;100.00
73952;BME280;62304;47.662;18.324;2023-05-16T09:18:23;99771.63;;;13.38;100.00
73952;BME280;62304;47.662;18.324;2023-05-16T09:21:28;99764.03;;;13.38;100.00
73952;BME280;62304;47.662;18.324;2023-05-16T09:24:37;99772.00;;;13.29;100.00
73952;BME280;62304;47.662;18.324;2023-05-16T09:27:40;99762.06;;;13.32;100.00
73952;BME280;62304;47.662;18.324;2023-05-16T09:30:45;99759.28;;;13.35;100.00
73952;BME280;62304;47.662;18.324;2023-05-16T09:33:48;99749.34;;;13.38;100.00
73952;BME280;62304;47.662;18.324;2023-05-16T09:36:55;99740.97;;;13.41;100.00
73952;BME280;62304;47.662;18.324;2023-05-16T09:39:58;99730.62;;;13.38;100.00
73952;BME280;62304;47.662;18.324;2023-05-16T09:43:03;99729.09;;;13.27;100.00
73952;BME280;62304;47.662;18.324;2023-05-16T09:46:07;99725.84;;;13.32;100.00
73952;BME280;62304;47.662;18.324;2023-05-16T09:49:11;99725.88;;;13.35;100.00
73952;BME280;62304;47.662;18.324;2023-05-16T09:52:15;99729.06;;;13.34;100.00
73952;BME280;62304;47.662;18.324;2023-05-16T09:55:18;99722.25;;;13.42;100.00
73952;BME280;62304;47.662;18.324;2023-05-16T09:58:27;99725.47;;;13.33;100.00
73952;BME280;62304;47.662;18.324;2023-05-16T10:01:31;99732.59;;;13.41;100.00
73952;BME280;62304;47.662;18.324;2023-05-16T10:04:34;99736.19;;;13.38;100.00
73952;BME280;62304;47.662;18.324;2023-05-16T10:07:38;99730.59;;;13.42;100.00
73952;BME280;62304;47.662;18.324;2023-05-16T10:10:42;99730.66;;;13.31;100.00
73952;BME280;62304;47.662;18.324;2023-05-16T10:13:45;99730.66;;;13.31;100.00
73952;BME280;62304;47.662;18.324;2023-05-16T10:16:55;99729.06;;;13.30;100.00
73952;BME280;62304;47.662;18.324;2023-05-16T10:20:06;99725.88;;;13.28;100.00
73952;BME280;62304;47.662;18.324;2023-05-16T10:23:16;99725.88;;;13.28;100.00
73952;BME280;62304;47.662;18.324;2023-05-16T10:26:19;99711.97;;;13.21;100.00
73952;BME280;62304;47.662;18.324;2023-05-16T10:29:24;99715.16;;;13.23;100.00
73952;BME280;62304;47.662;18.324;2023-05-16T10:32:28;99724.31;;;13.20;100.00
73952;BME280;62304;47.662;18.324;2023-05-16T10:35:33;99731.88;;;13.20;100.00
73952;BME280;62304;47.662;18.324;2023-05-16T10:38:37;99732.25;;;13.25;100.00
73952;BME280;62304;47.662;18.324;2023-05-16T10:41:41;99721.09;;;13.32;100.00
73952;BME280;62304;47.662;18.324;2023-05-16T10:44:44;99726.25;;;13.34;100.00
73952;BME280;62304;47.662;18.324;2023-05-16T10:48:01;99720.69;;;13.37;100.00
73952;BME280;62304;47.662;18.324;2023-05-16T10:51:34;99711.50;;;13.44;100.00
73952;BME280;62304;47.662;18.324;2023-05-16T10:54:40;99717.81;;;13.51;100.00
73952;BME280;62304;47.662;18.324;2023-05-16T10:57:44;99714.62;;;13.60;100.00
73952;BME280;62304;47.662;18.324;2023-05-16T11:00:47;99707.81;;;13.64;100.00
73952;BME280;62304;47.662;18.324;2023-05-16T11:07:06;99704.22;;;13.71;100.00
73952;BME280;62304;47.662;18.324;2023-05-16T11:10:15;99705.00;;;13.71;100.00
73952;BME280;62304;47.662;18.324;2023-05-16T11:13:23;99690.69;;;13.69;100.00
73952;BME280;62304;47.662;18.324;2023-05-16T11:16:26;99682.72;;;13.68;100.00
73952;BME280;62304;47.662;18.324;2023-05-16T11:19:51;99675.94;;;13.69;100.00
73952;BME280;62304;47.662;18.324;2023-05-16T11:23:26;99678.31;;;13.70;100.00
73952;BME280;62304;47.662;18.324;2023-05-16T11:26:30;99681.13;;;13.70;100.00
73952;BME280;62304;47.662;18.324;2023-05-16T11:29:34;99674.72;;;13.73;100.00
73952;BME280;62304;47.662;18.324;2023-05-16T11:32:41;99671.13;;;13.76;100.00
73952;BME280;62304;47.662;18.324;2023-05-16T11:35:59;99673.91;;;13.76;100.00
73952;BME280;62304;47.662;18.324;2023-05-16T11:39:17;99670.72;;;13.78;100.00
73952;BME280;62304;47.662;18.324;2023-05-16T11:42:23;99665.91;;;13.78;100.00
73952;BME280;62304;47.662;18.324;2023-05-16T11:45:26;99661.12;;;13.82;100.00
73952;BME280;62304;47.662;18.324;2023-05-16T11:48:29;99667.91;;;13.81;100.00
73952;BME280;62304;47.662;18.324;2023-05-16T11:51:39;99665.50;;;13.83;100.00
73952;BME280;62304;47.662;18.324;2023-05-16T11:54:42;99661.06;;;13.93;100.00
73952;BME280;62304;47.662;18.324;2023-05-16T11:57:45;99660.63;;;13.94;100.00
73952;BME280;62304;47.662;18.324;2023-05-16T12:00:49;99658.66;;;13.95;100.00
73952;BME280;62304;47.662;18.324;2023-05-16T12:03:56;99652.28;;;13.94;100.00
73952;BME280;62304;47.662;18.324;2023-05-16T12:07:00;99664.19;;;14.02;100.00
73952;BME280;62304;47.662;18.324;2023-05-16T12:10:05;99658.59;;;14.02;100.00
73952;BME280;62304;47.662;18.324;2023-05-16T12:13:09;99655.41;;;14.03;100.00
73952;BME280;62304;47.662;18.324;2023-05-16T12:16:12;99660.19;;;14.03;100.00
73952;BME280;62304;47.662;18.324;2023-05-16T12:19:15;99648.22;;;14.06;100.00
73952;BME280;62304;47.662;18.324;2023-05-16T12:22:19;99638.62;;;14.10;100.00
73952;BME280;62304;47.662;18.324;2023-05-16T12:25:30;99637.41;;;14.11;100.00
73952;BME280;62304;47.662;18.324;2023-05-16T12:28:43;99627.03;;;14.15;100.00
73952;BME280;62304;47.662;18.324;2023-05-16T12:31:46;99625.03;;;14.19;100.00
73952;BME280;62304;47.662;18.324;2023-05-16T12:34:50;99620.63;;;14.22;100.00
73952;BME280;62304;47.662;18.324;2023-05-16T12:37:58;99624.19;;;14.26;100.00
73952;BME280;62304;47.662;18.324;2023-05-16T12:41:02;99620.53;;;14.32;100.00
73952;BME280;62304;47.662;18.324;2023-05-16T12:44:14;99626.44;;;14.41;100.00
73952;BME280;62304;47.662;18.324;2023-05-16T12:47:19;99619.63;;;14.42;100.00
73952;BME280;62304;47.662;18.324;2023-05-16T12:50:25;99621.56;;;14.49;100.00
73952;BME280;62304;47.662;18.324;2023-05-16T12:53:28;99619.97;;;14.51;100.00
73952;BME280;62304;47.662;18.324;2023-05-16T12:56:31;99620.00;;;14.48;100.00
73952;BME280;62304;47.662;18.324;2023-05-16T12:59:35;99611.63;;;14.48;100.00
73952;BME280;62304;47.662;18.324;2023-05-16T13:02:39;99614.41;;;14.48;100.00
73952;BME280;62304;47.662;18.324;2023-05-16T13:05:42;99605.13;;;14.58;100.00
73952;BME280;62304;47.662;18.324;2023-05-16T13:08:46;99603.13;;;14.58;100.00
73952;BME280;62304;47.662;18.324;2023-05-16T13:11:49;99607.84;;;14.65;100.00
73952;BME280;62304;47.662;18.324;2023-05-16T13:14:56;99599.03;;;14.66;100.00
73952;BME280;62304;47.662;18.324;2023-05-16T13:17:59;99589.91;;;14.66;100.00
73952;BME280;62304;47.662;18.324;2023-05-16T13:21:02;99586.22;;;14.72;100.00
73952;BME280;62304;47.662;18.324;2023-05-16T13:24:06;99589.31;;;14.81;100.00
73952;BME280;62304;47.662;18.324;2023-05-16T13:27:09;99576.47;;;14.87;100.00
73952;BME280;62304;47.662;18.324;2023-05-16T13:30:12;99572.81;;;14.94;100.00
73952;BME280;62304;47.662;18.324;2023-05-16T13:33:15;99562.25;;;15.08;100.00
73952;BME280;62304;47.662;18.324;2023-05-16T13:36:18;99548.94;;;15.19;100.00
73952;BME280;62304;47.662;18.324;2023-05-16T13:39:21;99551.56;;;15.30;100.00
73952;BME280;62304;47.662;18.324;2023-05-16T13:42:24;99543.56;;;15.32;100.00
73952;BME280;62304;47.662;18.324;2023-05-16T13:45:28;99538.22;;;15.44;100.00
73952;BME280;62304;47.662;18.324;2023-05-16T13:48:31;99531.66;;;15.54;100.00
73952;BME280;62304;47.662;18.324;2023-05-16T13:51:34;99537.25;;;15.54;100.00
73952;BME280;62304;47.662;18.324;2023-05-16T13:54:37;99530.84;;;15.57;100.00
73952;BME280;62304;47.662;18.324;2023-05-16T13:57:42;99527.56;;;15.62;100.00
73952;BME280;62304;47.662;18.324;2023-05-16T14:00:47;99535.34;;;15.74;100.00
73952;BME280;62304;47.662;18.324;2023-05-16T14:03:50;99544.91;;;15.77;100.00
73952;BME280;62304;47.662;18.324;2023-05-16T14:06:53;99550.13;;;15.75;100.00
73952;BME280;62304;47.662;18.324;2023-05-16T14:09:58;99543.25;;;15.79;100.00
73952;BME280;62304;47.662;18.324;2023-05-16T14:13:01;99541.19;;;15.83;100.00
73952;BME280;62304;47.662;18.324;2023-05-16T14:16:04;99535.97;;;15.85;100.00
73952;BME280;62304;47.662;18.324;2023-05-16T14:19:07;99531.47;;;15.68;100.00
73952;BME280;62304;47.662;18.324;2023-05-16T14:22:11;99530.84;;;15.80;100.00
73952;BME280;62304;47.662;18.324;2023-05-16T14:25:14;99523.13;;;15.88;100.00
73952;BME280;62304;47.662;18.324;2023-05-16T14:28:18;99515.22;;;15.83;100.00
73952;BME280;62304;47.662;18.324;2023-05-16T14:31:20;99520.16;;;15.75;100.00
73952;BME280;62304;47.662;18.324;2023-05-16T14:34:24;99514.81;;;15.61;100.00
73952;BME280;62304;47.662;18.324;2023-05-16T14:37:27;99514.41;;;15.59;100.00
73952;BME280;62304;47.662;18.324;2023-05-16T14:40:31;99511.56;;;15.63;100.00
73952;BME280;62304;47.662;18.324;2023-05-16T14:43:34;99509.91;;;15.65;100.00
73952;BME280;62304;47.662;18.324;2023-05-16T14:46:37;99521.34;;;15.51;100.00
73952;BME280;62304;47.662;18.324;2023-05-16T14:49:43;99519.81;;;15.47;100.00
73952;BME280;62304;47.662;18.324;2023-05-16T14:52:46;99516.44;;;15.59;100.00
73952;BME280;62304;47.662;18.324;2023-05-16T14:55:49;99502.81;;;15.61;100.00
73952;BME280;62304;47.662;18.324;2023-05-16T14:58:52;99504.34;;;15.65;100.00
73952;BME280;62304;47.662;18.324;2023-05-16T15:01:56;99496.28;;;15.71;100.00
73952;BME280;62304;47.662;18.324;2023-05-16T15:04:59;99493.09;;;15.69;100.00
73952;BME280;62304;47.662;18.324;2023-05-16T15:08:02;99492.25;;;15.72;100.00
73952;BME280;62304;47.662;18.324;2023-05-16T15:11:05;99477.25;;;15.85;100.00
73952;BME280;62304;47.662;18.324;2023-05-16T15:14:08;99479.06;;;15.95;100.00
73952;BME280;62304;47.662;18.324;2023-05-16T15:17:11;99467.03;;;16.18;100.00
73952;BME280;62304;47.662;18.324;2023-05-16T15:20:14;99467.13;;;16.34;100.00
73952;BME280;62304;47.662;18.324;2023-05-16T15:23:17;99466.56;;;16.42;100.00
73952;BME280;62304;47.662;18.324;2023-05-16T15:26:20;99464.16;;;16.44;100.00
73952;BME280;62304;47.662;18.324;2023-05-16T15:29:24;99467.19;;;16.30;100.00
73952;BME280;62304;47.662;18.324;2023-05-16T15:32:27;99461.91;;;16.36;100.00
73952;BME280;62304;47.662;18.324;2023-05-16T15:35:31;99459.22;;;16.29;100.00
73952;BME280;62304;47.662;18.324;2023-05-16T15:38:33;99462.09;;;16.25;100.00
73952;BME280;62304;47.662;18.324;2023-05-16T15:41:38;99462.50;;;16.24;100.00
73952;BME280;62304;47.662;18.324;2023-05-16T15:45:01;99460.09;;;16.26;100.00
73952;BME280;62304;47.662;18.324;2023-05-16T15:48:05;99462.31;;;16.34;100.00
73952;BME280;62304;47.662;18.324;2023-05-16T15:51:08;99466.41;;;16.30;100.00
73952;BME280;62304;47.662;18.324;2023-05-16T15:54:11;99467.63;;;16.29;100.00
73952;BME280;62304;47.662;18.324;2023-05-16T15:57:14;99463.16;;;16.31;100.00
73952;BME280;62304;47.662;18.324;2023-05-16T16:00:17;99465.19;;;16.31;100.00
73952;BME280;62304;47.662;18.324;2023-05-16T16:03:20;99455.66;;;16.28;100.00
73952;BME280;62304;47.662;18.324;2023-05-16T16:06:24;99455.94;;;16.34;100.00
73952;BME280;62304;47.662;18.324;2023-05-16T16:09:27;99450.56;;;16.23;100.00
73952;BME280;62304;47.662;18.324;2023-05-16T16:12:30;99448.50;;;16.04;100.00